Temp: 15.7°C   Baro: 1011.7mb
  Wind: 6.0mph   Dir: WNW (291°)
  Rain: 2.0mm (0.0mm/hr)
  Solar: 156W/m2  Hum: 69%
 
Bath Spa Weather Station Historical Data
Daily Summary for May 1, 2020 Units:  Metric    English   Both
Daily Weekly Monthly Yearly Custom
  High: Low: Average:
Temperature: 18.8 °C 13 °C 15.4 °C
Dew Point: 14.4 °C 9.8 °C 12.1 °C
Humidity: 91% 66.8% 81%
Wind Speed: 19.6km/h 0km/h 8.2km/h
Wind Gust: 30.6km/h - -
Wind- - West
Pressure: 1008.4 hPa 1003.6 hPa -
Precipitation: 1.52 mm    
Historical Graphs
 
 
Tabular Data for May 1, 2020
Time Temperature Dew Point Pressure Wind Wind Speed Wind Gust Humidity Rainfall Rate (Hourly) solar
00:04 15.4 °C 13.2 °C 1004.3 hPa WNW 5.1 km/h 8 km/h 87% 0 mm 0 W/m2
00:09 15.4 °C 13.2 °C 1004.3 hPa WNW 4.5 km/h 8 km/h 87% 0 mm 0 W/m2
00:14 15.4 °C 13.2 °C 1004.6 hPa West 8.9 km/h 12.9 km/h 87% 0 mm 0 W/m2
00:19 15.3 °C 13.1 °C 1004.3 hPa WNW 8.7 km/h 17.7 km/h 87% 0 mm 0 W/m2
00:24 15.2 °C 13.2 °C 1004.6 hPa West 9.7 km/h 17.7 km/h 88% 0.25 mm 0 W/m2
00:29 15.1 °C 13.1 °C 1004.6 hPa WNW 10 km/h 19.3 km/h 88% 0.25 mm 0 W/m2
00:34 14.7 °C 12.7 °C 1004.6 hPa West 12.9 km/h 25.7 km/h 88% 0.25 mm 0 W/m2
00:39 14.6 °C 12.6 °C 1004.6 hPa West 8.2 km/h 14.5 km/h 88% 0.25 mm 0 W/m2
00:44 14.6 °C 12.6 °C 1004.3 hPa West 5.3 km/h 11.3 km/h 88% 0.25 mm 0 W/m2
00:49 14.6 °C 12.6 °C 1004.3 hPa West 5.8 km/h 9.7 km/h 88% 0.25 mm 0 W/m2
00:54 14.4 °C 12.4 °C 1004.3 hPa West 7.6 km/h 11.3 km/h 88% 0.25 mm 0 W/m2
00:59 14.4 °C 12.4 °C 1004.3 hPa West 9 km/h 16.1 km/h 87.8% 0.25 mm 0 W/m2
01:04 14.4 °C 12.2 °C 1004.3 hPa WSW 10.3 km/h 22.5 km/h 86.8% 0.25 mm 0 W/m2
01:09 14.4 °C 12.1 °C 1003.9 hPa West 9 km/h 16.1 km/h 86% 0.25 mm 0 W/m2
01:14 14.4 °C 11.8 °C 1003.9 hPa West 7.1 km/h 16.1 km/h 84.6% 0.25 mm 0 W/m2
01:19 14.6 °C 11.7 °C 1003.9 hPa West 7.9 km/h 14.5 km/h 83.4% 0.25 mm 0 W/m2
01:24 14.6 °C 11.7 °C 1003.9 hPa West 6.4 km/h 16.1 km/h 82.8% 0.25 mm 0 W/m2
01:29 14.6 °C 11.6 °C 1003.9 hPa West 5.6 km/h 9.7 km/h 82% 0 mm 0 W/m2
01:34 14.6 °C 11.6 °C 1003.9 hPa West 6.4 km/h 11.3 km/h 82% 0 mm 0 W/m2
01:39 14.5 °C 11.5 °C 1003.9 hPa West 4.7 km/h 12.9 km/h 82% 0 mm 0 W/m2
01:44 14.5 °C 11.4 °C 1003.9 hPa West 3.4 km/h 6.4 km/h 81.8% 0 mm 0 W/m2
01:49 14.4 °C 11.3 °C 1003.9 hPa West 4.8 km/h 12.9 km/h 81% 0 mm 0 W/m2
01:54 14.5 °C 11.3 °C 1003.9 hPa West 7.6 km/h 14.5 km/h 81% 0 mm 0 W/m2
01:59 14.6 °C 11.4 °C 1003.9 hPa WSW 6.6 km/h 14.5 km/h 81% 0 mm 0 W/m2
02:04 14.7 °C 11.5 °C 1003.9 hPa WSW 6 km/h 16.1 km/h 81% 0 mm 0 W/m2
02:09 14.7 °C 11.3 °C 1003.9 hPa West 9 km/h 17.7 km/h 80% 0 mm 0 W/m2
02:14 14.7 °C 11.3 °C 1003.9 hPa WSW 7.2 km/h 14.5 km/h 80% 0 mm 0 W/m2
02:19 14.7 °C 11.3 °C 1003.9 hPa West 5.3 km/h 9.7 km/h 80.6% 0 mm 0 W/m2
02:24 14.6 °C 11.4 °C 1003.9 hPa West 5.5 km/h 8 km/h 81% 0 mm 0 W/m2
02:29 14.5 °C 11.3 °C 1003.9 hPa West 5.3 km/h 12.9 km/h 81% 0 mm 0 W/m2
02:34 14.4 °C 11.2 °C 1003.9 hPa West 5.1 km/h 11.3 km/h 81% 0 mm 0 W/m2
02:39 14.4 °C 11.3 °C 1003.6 hPa West 3.7 km/h 9.7 km/h 81.4% 0 mm 0 W/m2
02:44 14.3 °C 11.3 °C 1003.6 hPa West 5.8 km/h 9.7 km/h 82% 0 mm 0 W/m2
02:49 14.3 °C 11.3 °C 1003.9 hPa West 4.7 km/h 11.3 km/h 82% 0 mm 0 W/m2
02:54 14.2 °C 11.2 °C 1003.9 hPa WSW 6.4 km/h 9.7 km/h 82% 0 mm 0 W/m2
02:59 14.2 °C 11.3 °C 1003.6 hPa WSW 6.4 km/h 12.9 km/h 82.8% 0 mm 0 W/m2
03:04 14.2 °C 11.4 °C 1003.6 hPa WSW 4.7 km/h 12.9 km/h 83% 0 mm 0 W/m2
03:09 14.1 °C 11.3 °C 1003.6 hPa WSW 4.3 km/h 8 km/h 83% 0 mm 0 W/m2
03:14 14.1 °C 11.3 °C 1003.6 hPa WSW 3.9 km/h 8 km/h 83.6% 0 mm 0 W/m2
03:19 13.9 °C 11.2 °C 1003.6 hPa WSW 3.9 km/h 8 km/h 84% 0 mm 0 W/m2
03:23 13.9 °C 11.2 °C 1003.6 hPa WSW 3.9 km/h 8 km/h 84% 0 mm 0 W/m2
03:28 13.9 °C 11.3 °C 1003.6 hPa WSW 3.5 km/h 8 km/h 84.8% 0 mm 0 W/m2
03:34 13.8 °C 11.3 °C 1003.9 hPa WSW 3.2 km/h 6.4 km/h 85% 0 mm 0 W/m2
03:39 13.8 °C 11.3 °C 1003.9 hPa WSW 3.2 km/h 4.8 km/h 85% 0 mm 0 W/m2
03:49 13.7 °C 11.3 °C 1003.9 hPa West 3.2 km/h 8 km/h 85.8% 0 mm 0 W/m2
03:54 13.7 °C 11.4 °C 1003.9 hPa West 3.2 km/h 11.3 km/h 86% 0 mm 0 W/m2
03:59 13.6 °C 11.3 °C 1003.6 hPa NW 4 km/h 8 km/h 86% 0 mm 0 W/m2
04:04 13.6 °C 11.3 °C 1003.6 hPa NW 2.3 km/h 4.8 km/h 86% 0 mm 0 W/m2
04:09 13.6 °C 11.3 °C 1003.6 hPa NW 3.5 km/h 6.4 km/h 86.2% 0 mm 0 W/m2
04:14 13.6 °C 11.4 °C 1003.6 hPa NW 1.3 km/h 6.4 km/h 86.4% 0 mm 0 W/m2
04:19 13.6 °C 11.4 °C 1003.6 hPa NW 2.3 km/h 4.8 km/h 86.8% 0 mm 0 W/m2
04:24 13.6 °C 11.5 °C 1003.6 hPa NW 0.8 km/h 3.2 km/h 87% 0 mm 0 W/m2
04:29 13.6 °C 11.5 °C 1003.6 hPa NW 1 km/h 3.2 km/h 87% 0 mm 0 W/m2
04:34 13.6 °C 11.5 °C 1003.6 hPa WNW 2.7 km/h 4.8 km/h 87% 0 mm 0 W/m2
04:39 13.6 °C 11.5 °C 1003.6 hPa WNW 1 km/h 3.2 km/h 87% 0 mm 0 W/m2
04:44 13.6 °C 11.5 °C 1003.6 hPa West 2.1 km/h 6.4 km/h 87% 0 mm 0 W/m2
04:49 13.6 °C 11.5 °C 1003.6 hPa West 5 km/h 6.4 km/h 87% 0 mm 0 W/m2
04:54 13.6 °C 11.5 °C 1003.6 hPa WSW 3.9 km/h 9.7 km/h 87% 0 mm 0 W/m2
04:59 13.7 °C 11.6 °C 1003.6 hPa SW 9 km/h 14.5 km/h 87% 0 mm 0 W/m2
05:04 13.7 °C 11.6 °C 1003.6 hPa WSW 6.9 km/h 16.1 km/h 87% 0 mm 0 W/m2
05:09 13.7 °C 11.6 °C 1003.6 hPa SW 10 km/h 14.5 km/h 87% 0 mm 7 W/m2
05:14 13.7 °C 11.6 °C 1003.6 hPa SW 8 km/h 12.9 km/h 87% 0 mm 12 W/m2
05:19 13.7 °C 11.6 °C 1003.6 hPa SW 6.6 km/h 14.5 km/h 87% 0 mm 14 W/m2
05:24 13.7 °C 11.6 °C 1003.6 hPa WSW 6.8 km/h 11.3 km/h 87% 0 mm 14 W/m2
05:29 13.7 °C 11.6 °C 1003.6 hPa SW 5.3 km/h 14.5 km/h 87% 0 mm 16 W/m2
05:34 13.7 °C 11.6 °C 1003.6 hPa SW 6.4 km/h 12.9 km/h 87% 0 mm 18 W/m2
05:39 13.8 °C 11.7 °C 1003.6 hPa SW 5.3 km/h 11.3 km/h 87% 0 mm 18 W/m2
05:44 13.8 °C 11.7 °C 1003.6 hPa WSW 6.1 km/h 11.3 km/h 87% 0 mm 18 W/m2
05:49 13.8 °C 11.7 °C 1003.6 hPa WSW 5.8 km/h 12.9 km/h 87% 0 mm 23 W/m2
05:54 13.8 °C 11.7 °C 1003.6 hPa WSW 7.7 km/h 12.9 km/h 87% 0 mm 32 W/m2
05:59 13.8 °C 11.7 °C 1003.6 hPa SW 6.4 km/h 12.9 km/h 87% 0 mm 30 W/m2
06:04 13.8 °C 11.7 °C 1003.6 hPa WSW 4.5 km/h 9.7 km/h 87% 0 mm 32 W/m2
06:09 13.8 °C 11.7 °C 1003.6 hPa WSW 5.6 km/h 9.7 km/h 87% 0 mm 42 W/m2
06:14 13.8 °C 11.7 °C 1003.6 hPa SW 4.5 km/h 11.3 km/h 87% 0 mm 63 W/m2
06:19 13.8 °C 11.7 °C 1003.6 hPa SW 5.6 km/h 9.7 km/h 87% 0 mm 63 W/m2
06:24 13.9 °C 11.8 °C 1003.6 hPa SW 3.4 km/h 9.7 km/h 87% 0 mm 63 W/m2
06:29 13.9 °C 11.8 °C 1003.9 hPa SW 7.7 km/h 11.3 km/h 87% 0 mm 56 W/m2
06:34 13.9 °C 11.8 °C 1003.9 hPa SW 5.1 km/h 12.9 km/h 87% 0 mm 83 W/m2
06:39 13.9 °C 11.8 °C 1003.9 hPa WSW 7.4 km/h 12.9 km/h 87% 0 mm 90 W/m2
06:44 13.9 °C 11.8 °C 1003.9 hPa SW 5.5 km/h 12.9 km/h 87% 0 mm 97 W/m2
06:49 13.9 °C 11.8 °C 1003.9 hPa SW 4.7 km/h 9.7 km/h 87% 0 mm 105 W/m2
06:54 14.1 °C 11.9 °C 1003.9 hPa SW 6 km/h 8 km/h 87% 0 mm 77 W/m2
06:58 14.2 °C 12.1 °C 1003.9 hPa WSW 4 km/h 8 km/h 87% 0 mm 98 W/m2
07:04 14.2 °C 12 °C 1003.9 hPa WSW 4.7 km/h 11.3 km/h 86.6% 0 mm 130 W/m2
07:09 14.2 °C 11.9 °C 1003.9 hPa West 3.7 km/h 12.9 km/h 86% 0 mm 174 W/m2
07:14 14.3 °C 12 °C 1003.9 hPa SW 4.2 km/h 8 km/h 86% 0 mm 195 W/m2
07:19 14.4 °C 12.1 °C 1003.9 hPa WSW 4.5 km/h 8 km/h 86% 0 mm 132 W/m2
07:24 14.5 °C 12.2 °C 1003.9 hPa SW 7.6 km/h 16.1 km/h 85.8% 0 mm 93 W/m2
07:29 14.6 °C 12.1 °C 1003.9 hPa WSW 4 km/h 14.5 km/h 85% 0 mm 109 W/m2
07:34 14.7 °C 12.2 °C 1003.9 hPa West 9 km/h 14.5 km/h 85% 0 mm 93 W/m2
07:39 14.6 °C 12.1 °C 1003.9 hPa West 6.1 km/h 12.9 km/h 85% 0 mm 162 W/m2
07:44 14.7 °C 12.2 °C 1003.9 hPa West 4.8 km/h 11.3 km/h 85% 0 mm 162 W/m2
07:49 14.7 °C 12.2 °C 1003.9 hPa WSW 8 km/h 14.5 km/h 85% 0 mm 158 W/m2
07:54 14.8 °C 12.3 °C 1003.9 hPa WSW 7.1 km/h 12.9 km/h 85% 0 mm 127 W/m2
07:59 14.8 °C 12.2 °C 1003.9 hPa SW 6.3 km/h 12.9 km/h 84.5% 0 mm 135 W/m2
08:04 14.9 °C 12.2 °C 1004.3 hPa SW 6.9 km/h 12.9 km/h 84% 0 mm 153 W/m2
08:09 14.9 °C 12.2 °C 1004.3 hPa SW 8.4 km/h 19.3 km/h 84% 0 mm 123 W/m2
08:14 14.8 °C 12.2 °C 1004.3 hPa SW 7.2 km/h 14.5 km/h 84% 0 mm 107 W/m2
08:19 14.8 °C 12.2 °C 1004.3 hPa WSW 8.7 km/h 17.7 km/h 84.4% 0.25 mm 114 W/m2
08:24 14.7 °C 12.2 °C 1004.3 hPa WSW 8.9 km/h 14.5 km/h 85% 0.25 mm 130 W/m2
08:29 14.6 °C 12.3 °C 1004.3 hPa WSW 7.1 km/h 16.1 km/h 86% 0.25 mm 142 W/m2
08:34 14.6 °C 12.4 °C 1004.3 hPa WSW 8.7 km/h 16.1 km/h 86.8% 0.25 mm 151 W/m2
08:39 14.5 °C 12.4 °C 1004.3 hPa WSW 10.3 km/h 17.7 km/h 87% 0.25 mm 142 W/m2
08:44 14.6 °C 12.4 °C 1004.6 hPa WSW 7.1 km/h 17.7 km/h 87% 0.25 mm 155 W/m2
08:49 14.7 °C 12.6 °C 1004.6 hPa WSW 9 km/h 14.5 km/h 87% 0.25 mm 209 W/m2
08:54 14.7 °C 12.6 °C 1004.6 hPa SW 9.3 km/h 16.1 km/h 87% 0.25 mm 239 W/m2
08:59 14.8 °C 12.7 °C 1004.6 hPa WSW 8.4 km/h 16.1 km/h 87% 0.25 mm 179 W/m2
09:04 14.8 °C 12.8 °C 1004.6 hPa WSW 6.6 km/h 12.9 km/h 87% 0.25 mm 190 W/m2
09:09 15.1 °C 12.9 °C 1004.6 hPa WSW 6.4 km/h 11.3 km/h 87% 0.25 mm 190 W/m2
09:14 15.2 °C 13 °C 1004.6 hPa SW 10.1 km/h 14.5 km/h 86.8% 0.25 mm 236 W/m2
09:19 15.2 °C 12.9 °C 1004.6 hPa WSW 11.4 km/h 20.9 km/h 86% 0.25 mm 134 W/m2
09:24 15.2 °C 12.9 °C 1004.6 hPa WSW 9.3 km/h 17.7 km/h 86% 0 mm 162 W/m2
09:29 15.2 °C 12.9 °C 1004.6 hPa WSW 12.6 km/h 22.5 km/h 86% 0 mm 148 W/m2
09:34 14.9 °C 12.8 °C 1004.6 hPa SW 11.6 km/h 25.7 km/h 86.6% 0 mm 230 W/m2
09:39 14.8 °C 12.8 °C 1004.6 hPa WSW 5.1 km/h 14.5 km/h 87.4% 0 mm 248 W/m2
09:44 14.9 °C 12.9 °C 1004.6 hPa West 7.2 km/h 16.1 km/h 88% 0 mm 185 W/m2
09:49 15 °C 13.1 °C 1004.6 hPa WSW 8 km/h 16.1 km/h 88.6% 0 mm 169 W/m2
09:54 14.9 °C 13.1 °C 1004.6 hPa WSW 6.9 km/h 16.1 km/h 89% 0.25 mm 223 W/m2
09:59 14.9 °C 13.1 °C 1004.6 hPa West 6 km/h 14.5 km/h 89% 0.25 mm 234 W/m2
10:04 14.9 °C 13.2 °C 1004.6 hPa WSW 8.9 km/h 14.5 km/h 89.4% 0.25 mm 195 W/m2
10:09 15.2 °C 13.6 °C 1004.6 hPa West 7.6 km/h 14.5 km/h 90% 0.25 mm 211 W/m2
10:14 15.2 °C 13.6 °C 1004.6 hPa West 8.5 km/h 16.1 km/h 90% 0.25 mm 213 W/m2
10:19 15.2 °C 13.6 °C 1004.6 hPa West 10 km/h 17.7 km/h 89.8% 0.25 mm 216 W/m2
10:24 15.2 °C 13.6 °C 1004.6 hPa West 8.9 km/h 17.7 km/h 90% 0.51 mm 169 W/m2
10:29 15.2 °C 13.6 °C 1004.6 hPa West 7.9 km/h 16.1 km/h 90% 1.02 mm 151 W/m2
10:34 15 °C 13.4 °C 1004.6 hPa West 7.7 km/h 16.1 km/h 90% 1.27 mm 116 W/m2
10:39 15 °C 13.4 °C 1004.6 hPa West 7.2 km/h 11.3 km/h 90% 1.27 mm 134 W/m2
10:44 14.9 °C 13.3 °C 1004.6 hPa West 8.2 km/h 20.9 km/h 90% 1.27 mm 220 W/m2
10:49 15.1 °C 13.5 °C 1004.6 hPa West 6.8 km/h 12.9 km/h 90.6% 1.27 mm 371 W/m2
10:54 15.2 °C 13.7 °C 1004.6 hPa WSW 6 km/h 14.5 km/h 91% 1.27 mm 436 W/m2
10:59 15.4 °C 13.9 °C 1004.6 hPa West 8.5 km/h 16.1 km/h 91% 1.02 mm 387 W/m2
11:04 15.6 °C 14.1 °C 1004.6 hPa West 9.2 km/h 17.7 km/h 91% 1.02 mm 302 W/m2
11:09 15.7 °C 14.2 °C 1004.6 hPa West 12.6 km/h 20.9 km/h 90.4% 1.02 mm 269 W/m2
11:14 15.7 °C 14.1 °C 1004.6 hPa West 11.6 km/h 19.3 km/h 89.6% 1.02 mm 369 W/m2
11:19 15.9 °C 14.1 °C 1004.6 hPa West 5.6 km/h 17.7 km/h 89% 1.02 mm 343 W/m2
11:24 16.2 °C 14.3 °C 1004.6 hPa WNW 6.9 km/h 14.5 km/h 89% 1.02 mm 408 W/m2
11:29 16.3 °C 14.3 °C 1004.6 hPa West 8.5 km/h 17.7 km/h 88% 0.76 mm 454 W/m2
11:34 16.4 °C 14.4 °C 1004.6 hPa West 7.4 km/h 17.7 km/h 88% 0.25 mm 186 W/m2
11:39 16.3 °C 14.3 °C 1004.6 hPa WNW 11.3 km/h 19.3 km/h 87.6% 0 mm 246 W/m2
11:44 16.2 °C 14.1 °C 1004.6 hPa WNW 8.7 km/h 19.3 km/h 87% 0 mm 264 W/m2
11:49 16.3 °C 14.1 °C 1004.6 hPa WNW 10.9 km/h 20.9 km/h 87% 0 mm 251 W/m2
11:54 16.2 °C 13.9 °C 1004.6 hPa WNW 10.9 km/h 25.7 km/h 86% 0 mm 188 W/m2
11:59 16.3 °C 13.9 °C 1005 hPa WNW 10.9 km/h 19.3 km/h 85.6% 0 mm 220 W/m2
12:04 16.2 °C 13.9 °C 1005 hPa WNW 10.3 km/h 24.1 km/h 85.8% 0 mm 288 W/m2
12:09 16.2 °C 13.8 °C 1005 hPa West 9.2 km/h 17.7 km/h 85.8% 0 mm 510 W/m2
12:14 16.6 °C 14.2 °C 1005 hPa West 9.2 km/h 20.9 km/h 86% 0 mm 675 W/m2
12:19 16.9 °C 14.4 °C 1005 hPa West 10.9 km/h 20.9 km/h 85% 0 mm 563 W/m2
12:23 16.9 °C 14.2 °C 1005 hPa West 12.6 km/h 25.7 km/h 84% 0 mm 264 W/m2
12:29 16.9 °C 13.9 °C 1005 hPa WNW 11.9 km/h 27.4 km/h 82.4% 0 mm 315 W/m2
12:34 16.9 °C 13.7 °C 1005 hPa West 7.6 km/h 25.7 km/h 81% 0 mm 445 W/m2
12:39 17.2 °C 13.8 °C 1005 hPa West 13.8 km/h 27.4 km/h 80.6% 0 mm 410 W/m2
12:44 17.1 °C 13.6 °C 1005 hPa West 13.5 km/h 24.1 km/h 80% 0 mm 359 W/m2
12:49 17.1 °C 13.7 °C 1005.3 hPa WNW 11.3 km/h 25.7 km/h 80.4% 0 mm 408 W/m2
12:54 17.3 °C 14 °C 1005.3 hPa WNW 10.6 km/h 20.9 km/h 80.8% 0 mm 360 W/m2
12:59 17.4 °C 13.9 °C 1005.3 hPa West 14 km/h 20.9 km/h 80% 0 mm 374 W/m2
13:04 17.2 °C 13.8 °C 1005.3 hPa West 11.6 km/h 20.9 km/h 80.4% 0 mm 316 W/m2
13:09 17.1 °C 13.8 °C 1005.3 hPa West 14.2 km/h 29 km/h 81% 0 mm 288 W/m2
13:14 17.1 °C 13.8 °C 1005.3 hPa West 10.8 km/h 24.1 km/h 81% 0 mm 408 W/m2
13:19 17 °C 13.7 °C 1005.6 hPa West 12.9 km/h 25.7 km/h 81% 0 mm 503 W/m2
13:24 17.2 °C 13.9 °C 1005.3 hPa WSW 8.7 km/h 22.5 km/h 81% 0 mm 571 W/m2
13:29 17.4 °C 13.9 °C 1005.6 hPa West 10.9 km/h 25.7 km/h 80.4% 0 mm 448 W/m2
13:34 17.3 °C 13.8 °C 1005.6 hPa WSW 11.4 km/h 25.7 km/h 80% 0 mm 438 W/m2
13:39 17.4 °C 13.9 °C 1005.6 hPa WNW 12.6 km/h 22.5 km/h 80% 0 mm 670 W/m2
13:44 17.3 °C 13.7 °C 1005.6 hPa WNW 15.4 km/h 25.7 km/h 79% 0 mm 670 W/m2
13:49 17.4 °C 13.7 °C 1005.6 hPa West 13.2 km/h 25.7 km/h 78.6% 0 mm 673 W/m2
13:54 17.7 °C 13.8 °C 1005.6 hPa WNW 9.5 km/h 20.9 km/h 77.8% 0 mm 622 W/m2
13:59 17.8 °C 13.7 °C 1005.6 hPa WNW 11.9 km/h 22.5 km/h 77% 0 mm 610 W/m2
14:04 17.8 °C 13.6 °C 1005.6 hPa WNW 19.2 km/h 29 km/h 76.2% 0 mm 714 W/m2
14:09 17.9 °C 13.6 °C 1005.6 hPa West 17.4 km/h 27.4 km/h 75.6% 0 mm 510 W/m2
14:14 18.3 °C 13.8 °C 1005.6 hPa WNW 14.5 km/h 24.1 km/h 75% 0 mm 754 W/m2
14:24 18.4 °C 13.8 °C 1005.6 hPa West 11.9 km/h 25.7 km/h 74.4% 0 mm 1060 W/m2
14:29 18.8 °C 14.1 °C 1005.6 hPa West 11.9 km/h 22.5 km/h 74% 0 mm 1063 W/m2
14:34 18.3 °C 13.4 °C 1005.6 hPa West 16.4 km/h 24.1 km/h 73.2% 0 mm 612 W/m2
14:39 18.2 °C 13.5 °C 1005.6 hPa WNW 14.8 km/h 24.1 km/h 74.2% 0 mm 466 W/m2
14:44 18.4 °C 13.7 °C 1005.6 hPa West 13.2 km/h 24.1 km/h 74% 0 mm 490 W/m2
14:49 18.7 °C 13.8 °C 1005.6 hPa WNW 15.9 km/h 29 km/h 73.2% 0 mm 490 W/m2
14:54 18.4 °C 13.4 °C 1005.6 hPa West 14.5 km/h 29 km/h 72.4% 0 mm 387 W/m2
14:59 18.3 °C 13.3 °C 1005.6 hPa West 15.8 km/h 20.9 km/h 72.8% 0 mm 325 W/m2
15:04 18.2 °C 13.4 °C 1005.6 hPa WNW 14.5 km/h 24.1 km/h 73.8% 0 mm 427 W/m2
15:09 18.2 °C 13.4 °C 1005.6 hPa WNW 11.1 km/h 22.5 km/h 74% 0 mm 359 W/m2
15:14 18.1 °C 13.4 °C 1005.6 hPa West 13.8 km/h 27.4 km/h 74% 0 mm 383 W/m2
15:19 17.8 °C 13.2 °C 1006 hPa WNW 13.5 km/h 27.4 km/h 74.2% 0 mm 362 W/m2
15:24 17.8 °C 13.3 °C 1006 hPa West 10.8 km/h 20.9 km/h 75% 0 mm 285 W/m2
15:29 17.8 °C 13.3 °C 1006 hPa WNW 12.7 km/h 20.9 km/h 75% 0 mm 348 W/m2
15:34 17.8 °C 13.2 °C 1006 hPa WNW 14.8 km/h 25.7 km/h 74.2% 0 mm 415 W/m2
15:39 17.7 °C 12.9 °C 1006 hPa WNW 11.3 km/h 20.9 km/h 73.8% 0 mm 323 W/m2
15:44 17.7 °C 13.1 °C 1006 hPa West 12.9 km/h 27.4 km/h 74.2% 0 mm 582 W/m2
15:49 17.7 °C 13.2 °C 1006.3 hPa WNW 12.2 km/h 29 km/h 74.6% 0 mm 599 W/m2
15:54 17.7 °C 13.2 °C 1006.3 hPa WNW 13.5 km/h 27.4 km/h 75% 0 mm 427 W/m2
15:59 17.8 °C 13.3 °C 1006.3 hPa West 11.1 km/h 24.1 km/h 74.8% 0 mm 468 W/m2
16:04 17.6 °C 13 °C 1006.3 hPa WNW 12.6 km/h 24.1 km/h 74.6% 0 mm 202 W/m2
16:09 17.4 °C 12.9 °C 1006.3 hPa West 18 km/h 24.1 km/h 75% 0 mm 144 W/m2
16:14 17.1 °C 12.6 °C 1006.3 hPa West 19.6 km/h 29 km/h 75% 0 mm 181 W/m2
16:19 17 °C 12.6 °C 1006.3 hPa West 9.8 km/h 19.3 km/h 75.6% 0 mm 171 W/m2
16:24 17.1 °C 12.8 °C 1006.3 hPa West 10.3 km/h 20.9 km/h 76% 0 mm 174 W/m2
16:34 16.8 °C 12.5 °C 1006.3 hPa WNW 9.3 km/h 19.3 km/h 76% 0 mm 209 W/m2
16:38 16.9 °C 12.7 °C 1006.3 hPa West 12.9 km/h 16.1 km/h 76.3% 0 mm 229 W/m2
16:44 16.9 °C 12.7 °C 1006.3 hPa West 8.5 km/h 19.3 km/h 76.2% 0 mm 236 W/m2
16:49 17 °C 12.7 °C 1006.3 hPa WNW 7.6 km/h 12.9 km/h 76.2% 0 mm 209 W/m2
16:54 17.1 °C 12.8 °C 1006.3 hPa West 8 km/h 14.5 km/h 76% 0 mm 214 W/m2
16:59 17.1 °C 12.6 °C 1006.3 hPa WNW 13.2 km/h 27.4 km/h 75.2% 0 mm 251 W/m2
17:04 16.9 °C 12.2 °C 1006.3 hPa West 14 km/h 24.1 km/h 74% 0 mm 301 W/m2
17:09 17.1 °C 12.2 °C 1006.7 hPa West 8.9 km/h 22.5 km/h 73% 0 mm 550 W/m2
17:13 17.4 °C 12.5 °C 1006.3 hPa WSW 10.9 km/h 17.7 km/h 72.8% 0 mm 550 W/m2
17:19 17.6 °C 12.5 °C 1006.7 hPa West 9.7 km/h 17.7 km/h 72% 0 mm 332 W/m2
17:24 17.6 °C 12.4 °C 1006.7 hPa WNW 13.8 km/h 20.9 km/h 71.6% 0 mm 279 W/m2
17:29 17.3 °C 11.9 °C 1006.7 hPa West 12.9 km/h 20.9 km/h 70.2% 0 mm 355 W/m2
17:34 17.4 °C 11.9 °C 1006.7 hPa WNW 9 km/h 20.9 km/h 70% 0 mm 364 W/m2
17:39 17.4 °C 11.8 °C 1006.7 hPa West 14.5 km/h 24.1 km/h 69.4% 0 mm 666 W/m2
17:44 17.4 °C 11.7 °C 1006.7 hPa West 11.4 km/h 22.5 km/h 69.2% 0 mm 666 W/m2
17:49 17.7 °C 11.8 °C 1006.7 hPa WNW 13.2 km/h 27.4 km/h 68.4% 0 mm 766 W/m2
17:54 17.4 °C 11.3 °C 1006.7 hPa West 14 km/h 30.6 km/h 67.4% 0 mm 441 W/m2
17:59 17.2 °C 11 °C 1006.7 hPa West 12.9 km/h 27.4 km/h 67.4% 0 mm 267 W/m2
18:04 17.1 °C 11.1 °C 1006.7 hPa West 15 km/h 20.9 km/h 68% 0 mm 302 W/m2
18:09 17.1 °C 10.9 °C 1006.7 hPa WNW 14.8 km/h 22.5 km/h 67.2% 0 mm 334 W/m2
18:14 17.2 °C 11.1 °C 1006.7 hPa WSW 11.6 km/h 20.9 km/h 67.2% 0 mm 415 W/m2
18:19 17.4 °C 11.2 °C 1006.7 hPa West 9.3 km/h 19.3 km/h 66.8% 0 mm 339 W/m2
18:24 17.3 °C 11.2 °C 1006.7 hPa WNW 10.9 km/h 20.9 km/h 67% 0 mm 246 W/m2
18:29 17.2 °C 11.3 °C 1006.7 hPa West 10.9 km/h 20.9 km/h 68.4% 0 mm 290 W/m2
18:34 17.2 °C 11.4 °C 1006.7 hPa West 13 km/h 25.7 km/h 69% 0 mm 290 W/m2
18:39 16.9 °C 11.4 °C 1006.7 hPa West 12.6 km/h 20.9 km/h 69.8% 0 mm 343 W/m2
18:44 17.2 °C 11.7 °C 1006.7 hPa West 10.6 km/h 19.3 km/h 70% 0 mm 332 W/m2
18:49 17.3 °C 11.7 °C 1007 hPa WNW 11.9 km/h 30.6 km/h 69.6% 0 mm 427 W/m2
18:54 17.2 °C 11.7 °C 1007 hPa West 10.1 km/h 17.7 km/h 69.6% 0 mm 325 W/m2
18:59 17.1 °C 11.5 °C 1007 hPa West 7.6 km/h 14.5 km/h 69.3% 0 mm 171 W/m2
19:04 16.9 °C 11.4 °C 1007 hPa WNW 13.8 km/h 19.3 km/h 69.8% 0 mm 146 W/m2
19:09 16.6 °C 10.8 °C 1007 hPa WNW 11.9 km/h 25.7 km/h 68.6% 0 mm 132 W/m2
19:19 16.2 °C 10.3 °C 1007 hPa West 13.2 km/h 27.4 km/h 67.8% 0 mm 120 W/m2
19:24 16.2 °C 10.3 °C 1007 hPa West 8.4 km/h 24.1 km/h 68.2% 0 mm 116 W/m2
19:29 16.2 °C 10.4 °C 1007 hPa WNW 8.5 km/h 14.5 km/h 68.8% 0 mm 105 W/m2
19:34 16.1 °C 10.1 °C 1007 hPa West 14.5 km/h 19.3 km/h 67.4% 0 mm 97 W/m2
19:39 16 °C 9.9 °C 1007 hPa WNW 9.2 km/h 19.3 km/h 67% 0 mm 88 W/m2
19:44 15.9 °C 10 °C 1007 hPa WNW 9.5 km/h 16.1 km/h 67.8% 0 mm 83 W/m2
19:49 15.9 °C 10.2 °C 1007.3 hPa West 10 km/h 17.7 km/h 68.6% 0 mm 83 W/m2
19:54 15.9 °C 10.4 °C 1007.3 hPa West 11.3 km/h 19.3 km/h 70% 0 mm 98 W/m2
19:59 15.8 °C 10.4 °C 1007.3 hPa West 11.6 km/h 19.3 km/h 70.4% 0 mm 95 W/m2
20:04 15.8 °C 10.6 °C 1007.3 hPa WNW 9.3 km/h 25.7 km/h 71% 0 mm 76 W/m2
20:09 15.7 °C 10.6 °C 1007.3 hPa West 9.3 km/h 14.5 km/h 71.6% 0 mm 93 W/m2
20:14 15.8 °C 10.8 °C 1007.3 hPa West 7.1 km/h 14.5 km/h 72.2% 0 mm 105 W/m2
20:19 15.8 °C 11.1 °C 1007.3 hPa West 7.9 km/h 17.7 km/h 73% 0 mm 100 W/m2
20:24 15.8 °C 11 °C 1007.3 hPa West 12.2 km/h 19.3 km/h 73% 0 mm 95 W/m2
20:29 15.7 °C 10.9 °C 1007.3 hPa West 13.2 km/h 20.9 km/h 73.2% 0 mm 83 W/m2
20:34 15.6 °C 11 °C 1007.3 hPa WNW 10 km/h 19.3 km/h 74% 0 mm 72 W/m2
20:39 15.6 °C 10.9 °C 1007.7 hPa WNW 10.3 km/h 17.7 km/h 74% 0 mm 53 W/m2
20:44 15.4 °C 10.9 °C 1007.7 hPa WNW 7.6 km/h 16.1 km/h 74.4% 0 mm 37 W/m2
20:49 15.2 °C 10.7 °C 1007.7 hPa WNW 9 km/h 25.7 km/h 74.2% 0 mm 28 W/m2
20:54 15.1 °C 10.4 °C 1007.7 hPa NW 10 km/h 17.7 km/h 74% 0 mm 19 W/m2
20:59 14.8 °C 10.3 °C 1007.7 hPa WNW 6.9 km/h 16.1 km/h 74.4% 0 mm 16 W/m2
21:04 14.7 °C 10.3 °C 1007.7 hPa WNW 7.7 km/h 14.5 km/h 75% 0 mm 14 W/m2
21:09 14.5 °C 10.1 °C 1007.7 hPa West 10 km/h 17.7 km/h 75% 0 mm 12 W/m2
21:14 14.3 °C 10 °C 1007.7 hPa West 10 km/h 17.7 km/h 75.4% 0 mm 11 W/m2
21:23 14.1 °C 9.9 °C 1007.7 hPa WNW 10.3 km/h 17.7 km/h 76.3% 0 mm 5 W/m2
21:29 14 °C 10 °C 1008 hPa WNW 7.2 km/h 16.1 km/h 77% 0 mm 5 W/m2
21:34 13.9 °C 9.9 °C 1008 hPa West 7.7 km/h 14.5 km/h 77% 0 mm 0 W/m2
21:39 13.8 °C 9.8 °C 1008 hPa WNW 7.9 km/h 11.3 km/h 77% 0 mm 0 W/m2
21:44 13.7 °C 9.9 °C 1008 hPa WNW 7.4 km/h 14.5 km/h 78% 0 mm 0 W/m2
21:49 13.7 °C 10.2 °C 1008 hPa WNW 7.1 km/h 11.3 km/h 79.2% 0 mm 0 W/m2
21:54 13.7 °C 10.3 °C 1008 hPa WNW 4.7 km/h 9.7 km/h 80% 0 mm 0 W/m2
21:59 13.7 °C 10.4 °C 1008.4 hPa West 6.4 km/h 11.3 km/h 80.6% 0 mm 0 W/m2
22:04 13.7 °C 10.5 °C 1008.4 hPa West 7.4 km/h 11.3 km/h 81% 0 mm 0 W/m2
22:09 13.7 °C 10.5 °C 1008.4 hPa West 5.8 km/h 11.3 km/h 81% 0 mm 0 W/m2
22:14 13.7 °C 10.5 °C 1008.4 hPa West 6 km/h 9.7 km/h 81% 0 mm 0 W/m2
22:19 13.8 °C 10.6 °C 1008.4 hPa WNW 5.1 km/h 9.7 km/h 81.3% 0 mm 0 W/m2
22:24 13.8 °C 10.8 °C 1008.4 hPa WNW 5.8 km/h 11.3 km/h 82% 0 mm 0 W/m2
22:29 13.8 °C 10.8 °C 1008.4 hPa WNW 4.5 km/h 11.3 km/h 82% 0 mm 0 W/m2
22:39 13.8 °C 10.8 °C 1008.4 hPa WNW 3.1 km/h 8 km/h 82% 0 mm 0 W/m2
22:44 13.8 °C 10.8 °C 1008.4 hPa WNW 3.9 km/h 6.4 km/h 82% 0 mm 0 W/m2
22:49 13.8 °C 10.8 °C 1008.4 hPa WNW 2.1 km/h 6.4 km/h 82% 0 mm 0 W/m2
22:54 13.8 °C 10.8 °C 1008.4 hPa WNW 1.9 km/h 4.8 km/h 82% 0 mm 0 W/m2
22:59 13.7 °C 10.7 °C 1008.4 hPa Calm   3.2 km/h 82% 0 mm 0 W/m2
23:04 13.6 °C 10.7 °C 1008.4 hPa WNW 0.3 km/h 1.6 km/h 82.2% 0 mm 0 W/m2
23:09 13.6 °C 10.8 °C 1008.4 hPa WNW 1.3 km/h 3.2 km/h 83% 0 mm 0 W/m2
23:14 13.5 °C 10.7 °C 1008.4 hPa Calm     83% 0 mm 0 W/m2
23:19 13.4 °C 10.7 °C 1008.4 hPa Calm     83% 0 mm 0 W/m2
23:24 13.4 °C 10.6 °C 1008.4 hPa Calm     83% 0 mm 0 W/m2
23:29 13.3 °C 10.5 °C 1008.4 hPa Calm     83% 0 mm 0 W/m2
23:34 13.2 °C 10.6 °C 1008.4 hPa Calm     83.6% 0 mm 0 W/m2
23:39 13.2 °C 10.6 °C 1008.4 hPa Calm     84% 0 mm 0 W/m2
23:44 13.1 °C 10.5 °C 1008.4 hPa WNW 0.3 km/h 3.2 km/h 84% 0 mm 0 W/m2
23:49 13.1 °C 10.4 °C 1008.4 hPa Calm   1.6 km/h 84% 0 mm 0 W/m2
23:54 13 °C 10.4 °C 1008.4 hPa WNW 1.3 km/h 4.8 km/h 84% 0 mm 0 W/m2
23:59 13 °C 10.4 °C 1008.4 hPa WNW 0.6 km/h 6.4 km/h 84% 0 mm 0 W/m2
Bath Spa Weather
Compliments of Weather Underground - 2 mb